Time;durP1;ratioP1;P1;durP2;ratioP2;P2;SDS_P1;SDS_P2;PMS_P1;PMS_P2;Temp;Humidity;BMP_temperature;BMP_pressure;BME280_temperature;BME280_humidity;BME280_pressure;Samples;Min_cycle;Max_cycle;Signal;HPM_P1;HPM_P2
2022/04/19 00:00:58;;;;;;;9.50;5.03;;;;;;;6.24;100.00;101160.41;7389047;19;20418;-44
2022/04/19 00:03:28;;;;;;;9.97;4.90;;;;;;;6.42;100.00;101157.28;7396362;19;20380;-44
2022/04/19 00:05:58;;;;;;;11.93;5.47;;;;;;;6.40;100.00;101159.72;7389454;19;20429;-44
2022/04/19 00:08:27;;;;;;;9.53;5.40;;;;;;;6.32;100.00;101163.47;7395008;19;20401;-44
2022/04/19 00:10:58;;;;;;;8.50;3.83;;;;;;;6.22;100.00;101154.28;7388858;19;20417;-45
2022/04/19 00:13:28;;;;;;;19.83;9.23;;;;;;;6.26;100.00;101152.81;7394611;19;20423;-44
2022/04/19 00:16:01;;;;;;;8.93;4.17;;;;;;;6.25;100.00;101145.91;7390008;19;20447;-43
2022/04/19 00:18:32;;;;;;;10.30;4.50;;;;;;;6.30;100.00;101145.41;7395040;19;20390;-45
2022/04/19 00:21:02;;;;;;;11.80;5.60;;;;;;;6.17;100.00;101142.84;7390802;19;20422;-44
2022/04/19 00:23:32;;;;;;;8.63;4.57;;;;;;;6.18;100.00;101144.63;7396350;19;20400;-44
2022/04/19 00:26:01;;;;;;;8.83;4.70;;;;;;;6.19;100.00;101151.50;7376424;19;20421;-43
2022/04/19 00:28:31;;;;;;;6.90;4.30;;;;;;;6.17;100.00;101143.75;7395121;19;20394;-44
2022/04/19 00:31:03;;;;;;;24.00;10.23;;;;;;;6.12;100.00;101139.09;7385867;19;20418;-45
2022/04/19 00:33:33;;;;;;;8.93;4.43;;;;;;;6.15;100.00;101145.28;7394220;19;20401;-44
2022/04/19 00:36:05;;;;;;;9.33;4.37;;;;;;;6.24;100.00;101137.34;7387935;19;20410;-44
2022/04/19 00:38:35;;;;;;;10.37;4.90;;;;;;;6.18;100.00;101147.19;7394556;19;20505;-46
2022/04/19 00:41:04;;;;;;;9.93;4.40;;;;;;;6.18;100.00;101144.63;7392423;19;20993;-46
2022/04/19 00:43:33;;;;;;;9.60;4.80;;;;;;;6.11;100.00;101134.75;7395348;19;20385;-45
2022/04/19 00:46:06;;;;;;;8.30;4.60;;;;;;;5.99;100.00;101137.38;7388325;19;20413;-44
2022/04/19 00:48:35;;;;;;;15.20;5.30;;;;;;;5.98;100.00;101133.91;7396537;19;20758;-44
2022/04/19 00:51:05;;;;;;;13.10;4.40;;;;;;;5.95;100.00;101138.84;7389131;19;20426;-46
2022/04/19 00:53:35;;;;;;;11.43;4.90;;;;;;;5.91;100.00;101131.72;7394493;19;20471;-44
2022/04/19 00:56:05;;;;;;;7.37;4.20;;;;;;;5.94;100.00;101135.38;7387904;19;20414;-48
2022/04/19 00:58:34;;;;;;;7.87;4.40;;;;;;;5.91;100.00;101132.59;7391945;19;20877;-46
2022/04/19 01:01:06;;;;;;;6.70;4.03;;;;;;;5.89;100.00;101130.75;7386717;19;20417;-44
2022/04/19 01:03:37;;;;;;;8.20;4.20;;;;;;;5.82;100.00;101134.56;7394681;19;20402;-45
2022/04/19 01:06:08;;;;;;;7.93;4.10;;;;;;;5.81;100.00;101120.84;7387371;19;20417;-44
2022/04/19 01:08:38;;;;;;;7.03;4.30;;;;;;;5.78;100.00;101114.63;7391672;19;20390;-45
2022/04/19 01:13:49;;;;;;;11.23;5.97;;;;;;;5.72;100.00;101116.78;7393888;19;20395;-44
2022/04/19 01:16:22;;;;;;;10.07;5.23;;;;;;;5.68;100.00;101105.47;7386416;19;20429;-44
2022/04/19 01:18:53;;;;;;;7.37;4.03;;;;;;;5.71;100.00;101105.69;7392244;19;20424;-44
2022/04/19 01:21:27;;;;;;;10.27;4.80;;;;;;;5.68;100.00;101102.91;7387355;19;20486;-44
2022/04/19 01:23:59;;;;;;;9.43;5.00;;;;;;;5.80;100.00;101105.41;7393987;19;20805;-43
2022/04/19 01:26:29;;;;;;;9.13;4.93;;;;;;;5.84;100.00;101096.25;7382022;19;20955;-43
2022/04/19 01:28:58;;;;;;;7.73;4.50;;;;;;;5.74;100.00;101098.19;7392646;19;20418;-45
2022/04/19 01:31:28;;;;;;;8.73;4.90;;;;;;;5.64;100.00;101098.38;7387961;19;20415;-46
2022/04/19 01:34:03;;;;;;;8.27;4.73;;;;;;;5.52;100.00;101089.09;7393446;19;20396;-43
2022/04/19 01:36:36;;;;;;;8.47;4.60;;;;;;;5.44;100.00;101089.34;7384103;19;20516;-46
2022/04/19 01:39:09;;;;;;;9.27;5.50;;;;;;;5.50;100.00;101085.50;7392365;19;20417;-45
2022/04/19 01:41:40;;;;;;;9.23;4.90;;;;;;;5.42;100.00;101079.00;7370212;19;20493;-44
2022/04/19 01:44:10;;;;;;;9.23;4.90;;;;;;;5.45;100.00;101074.09;7393984;19;20395;-48
2022/04/19 01:46:40;;;;;;;7.70;4.40;;;;;;;5.43;100.00;101073.09;7355241;19;20814;-47
2022/04/19 01:49:09;;;;;;;7.77;4.57;;;;;;;5.77;100.00;101062.56;7391279;19;20440;-45
2022/04/19 01:51:39;;;;;;;9.53;5.03;;;;;;;5.61;100.00;101068.34;7356923;19;20522;-46
2022/04/19 01:54:11;;;;;;;6.97;4.23;;;;;;;5.50;100.00;101065.03;7392513;19;20466;-47
2022/04/19 01:56:43;;;;;;;8.00;4.07;;;;;;;5.40;100.00;101068.66;7386699;19;20433;-46
2022/04/19 01:59:12;;;;;;;8.30;4.43;;;;;;;5.64;100.00;101060.84;7391443;19;20437;-45
2022/04/19 02:01:42;;;;;;;14.17;4.90;;;;;;;5.68;100.00;101064.50;7364604;19;20395;-46
2022/04/19 02:04:11;;;;;;;9.70;4.73;;;;;;;5.83;100.00;101068.88;7390764;19;20396;-45
2022/04/19 02:06:41;;;;;;;8.70;4.80;;;;;;;5.60;100.00;101074.25;7384884;19;20415;-43
2022/04/19 02:09:13;;;;;;;10.10;4.93;;;;;;;5.51;100.00;101073.59;7393992;19;20412;-44
2022/04/19 02:11:42;;;;;;;8.43;4.73;;;;;;;5.37;100.00;101065.00;7363928;19;20423;-48
2022/04/19 02:14:12;;;;;;;7.10;4.70;;;;;;;5.49;100.00;101053.03;7399918;19;20457;-45
2022/04/19 02:16:41;;;;;;;8.33;4.97;;;;;;;5.61;100.00;101050.41;7365839;19;20417;-44
2022/04/19 02:19:11;;;;;;;10.63;5.57;;;;;;;5.72;100.00;101056.25;7397446;19;20425;-46
2022/04/19 02:21:40;;;;;;;9.90;4.83;;;;;;;5.21;100.00;101058.84;7372353;19;20399;-44
2022/04/19 02:24:12;;;;;;;10.03;5.23;;;;;;;4.89;100.00;101060.06;7397796;19;20970;-46
2022/04/19 02:26:42;;;;;;;9.77;5.30;;;;;;;4.70;100.00;101040.88;7363545;19;20395;-44
2022/04/19 02:29:11;;;;;;;9.10;4.40;;;;;;;4.56;100.00;101027.13;7397266;19;20423;-46
2022/04/19 02:31:41;;;;;;;10.77;5.77;;;;;;;4.53;100.00;101026.94;7395100;19;20510;-48
2022/04/19 02:34:10;;;;;;;10.77;5.10;;;;;;;4.48;100.00;101017.16;7399771;19;20399;-44
2022/04/19 02:36:40;;;;;;;12.10;4.67;;;;;;;4.54;100.00;101002.25;7393730;19;20403;-46
2022/04/19 02:39:09;;;;;;;12.23;5.00;;;;;;;4.73;100.00;100995.06;7397627;19;20760;-44
2022/04/19 02:41:41;;;;;;;9.27;5.27;;;;;;;4.67;100.00;100988.66;7391494;19;20442;-46
2022/04/19 02:44:11;;;;;;;8.50;4.87;;;;;;;4.52;100.00;100985.94;7398791;19;20391;-46
2022/04/19 02:46:40;;;;;;;9.83;5.37;;;;;;;4.44;100.00;100981.16;7396317;19;20761;-44
2022/04/19 02:49:10;;;;;;;10.13;5.10;;;;;;;4.40;100.00;100963.84;7398586;19;20419;-44
2022/04/19 02:51:39;;;;;;;9.13;4.97;;;;;;;4.52;100.00;100952.69;7393200;19;20403;-44
2022/04/19 02:54:08;;;;;;;11.80;5.80;;;;;;;4.41;100.00;100949.41;7399069;19;20731;-44
2022/04/19 02:56:42;;;;;;;8.13;4.83;;;;;;;4.53;100.00;100940.03;7393009;19;20442;-45
2022/04/19 02:59:11;;;;;;;12.57;5.40;;;;;;;4.62;100.00;100939.78;7395137;19;20411;-46
2022/04/19 03:01:42;;;;;;;12.10;5.27;;;;;;;4.58;100.00;100935.25;7391058;19;20402;-47
2022/04/19 03:04:12;;;;;;;9.23;4.63;;;;;;;4.97;100.00;100931.06;7399071;19;20407;-44
2022/04/19 03:06:41;;;;;;;11.77;5.77;;;;;;;5.04;100.00;100950.28;7392710;19;20406;-45
2022/04/19 03:09:10;;;;;;;8.50;5.17;;;;;;;4.84;100.00;100946.34;7396380;19;20416;-44
2022/04/19 03:11:42;;;;;;;17.13;6.87;;;;;;;4.94;100.00;100948.78;7393645;19;20407;-46
2022/04/19 03:14:12;;;;;;;9.30;5.33;;;;;;;5.09;100.00;100943.78;7398622;19;20394;-44
2022/04/19 03:16:42;;;;;;;10.77;6.30;;;;;;;4.90;100.00;100956.09;7389898;19;20422;-47
2022/04/19 03:19:13;;;;;;;9.93;6.07;;;;;;;4.70;100.00;100956.53;7396300;19;20430;-46
2022/04/19 03:21:43;;;;;;;12.93;7.03;;;;;;;4.35;100.00;100954.97;7388214;19;20434;-44
2022/04/19 03:29:39;;;;;;;14.60;7.53;;;;;;;4.34;100.00;100922.53;7396469;19;20415;-46
2022/04/19 03:32:11;;;;;;;17.00;7.77;;;;;;;4.17;100.00;100921.34;7392709;19;20429;-47
2022/04/19 03:34:42;;;;;;;22.20;10.00;;;;;;;4.22;100.00;100906.34;7396510;19;20371;-44
2022/04/19 03:37:12;;;;;;;17.23;8.10;;;;;;;4.17;100.00;100901.78;7390654;19;20406;-46
2022/04/19 03:39:41;;;;;;;11.77;7.23;;;;;;;4.09;100.00;100899.50;7395816;19;20938;-47
2022/04/19 03:42:13;;;;;;;13.03;7.90;;;;;;;4.05;100.00;100885.63;7391109;19;20403;-47
2022/04/19 03:44:43;;;;;;;19.90;9.37;;;;;;;3.97;100.00;100885.09;7397669;19;20390;-44
2022/04/19 03:47:12;;;;;;;15.87;8.70;;;;;;;4.02;100.00;100870.09;7391458;19;20415;-46
2022/04/19 03:49:42;;;;;;;14.80;9.07;;;;;;;4.14;100.00;100860.72;7395087;19;20427;-45
2022/04/19 03:52:12;;;;;;;18.97;9.57;;;;;;;4.16;100.00;100851.50;7391325;19;20414;-44
2022/04/19 03:54:42;;;;;;;19.40;9.57;;;;;;;4.01;100.00;100850.44;7396369;19;20384;-45
2022/04/19 03:57:17;;;;;;;18.70;10.63;;;;;;;3.94;100.00;100846.56;7389923;19;20419;-45
2022/04/19 03:59:47;;;;;;;21.30;10.97;;;;;;;4.00;100.00;100839.34;7394716;19;20504;-47
2022/04/19 04:02:18;;;;;;;17.20;9.90;;;;;;;4.03;100.00;100828.44;7390453;19;20411;-45
2022/04/19 04:04:47;;;;;;;16.43;10.07;;;;;;;3.89;100.00;100824.94;7396727;19;20409;-43
2022/04/19 04:07:17;;;;;;;19.67;10.00;;;;;;;3.94;100.00;100810.81;7390038;19;20463;-48
2022/04/19 04:09:47;;;;;;;17.13;8.97;;;;;;;4.00;100.00;100808.69;7394182;19;20491;-44
2022/04/19 04:12:19;;;;;;;21.40;10.70;;;;;;;4.00;100.00;100813.81;7390715;19;20404;-47
2022/04/19 04:14:48;;;;;;;20.07;10.37;;;;;;;3.87;100.00;100809.53;7396367;19;20387;-44
2022/04/19 04:17:20;;;;;;;16.30;8.70;;;;;;;3.97;100.00;100798.28;7390712;19;20447;-43
2022/04/19 04:19:52;;;;;;;13.13;8.00;;;;;;;4.04;100.00;100799.56;7394820;19;20399;-45
2022/04/19 04:22:21;;;;;;;21.00;9.70;;;;;;;3.92;100.00;100799.63;7389452;19;20429;-44
2022/04/19 04:24:51;;;;;;;20.30;11.00;;;;;;;3.83;100.00;100797.31;7396044;19;20390;-43
2022/04/19 04:27:23;;;;;;;13.63;8.70;;;;;;;3.94;100.00;100797.19;7387574;19;20398;-45
2022/04/19 04:29:52;;;;;;;18.60;10.07;;;;;;;3.90;100.00;100791.84;7394241;19;20416;-47
2022/04/19 04:32:22;;;;;;;18.77;9.70;;;;;;;3.95;100.00;100792.16;7391023;19;20419;-43
2022/04/19 04:34:51;;;;;;;21.73;10.77;;;;;;;3.96;100.00;100787.97;7395404;19;20735;-45
2022/04/19 04:37:21;;;;;;;17.83;10.50;;;;;;;3.95;100.00;100781.09;7385511;19;20974;-47
2022/04/19 04:39:50;;;;;;;23.17;13.47;;;;;;;3.99;100.00;100781.41;7393458;19;21018;-44
2022/04/19 04:42:22;;;;;;;21.77;10.90;;;;;;;3.97;100.00;100782.06;7390420;19;20419;-45
2022/04/19 04:44:52;;;;;;;21.37;11.20;;;;;;;3.93;100.00;100775.88;7395965;19;20402;-47
2022/04/19 04:50:03;;;;;;;20.73;11.80;;;;;;;3.97;100.00;100771.84;7392736;19;20429;-46
2022/04/19 04:52:33;;;;;;;20.10;12.07;;;;;;;3.81;100.00;100773.38;7387037;19;20407;-47
2022/04/19 04:55:04;;;;;;;21.47;11.60;;;;;;;3.73;100.00;100765.16;7394951;19;20371;-49
2022/04/19 04:57:36;;;;;;;19.30;11.30;;;;;;;3.77;100.00;100748.41;7390553;19;20445;-45
2022/04/19 05:00:06;;;;;;;22.33;12.53;;;;;;;3.75;100.00;100744.88;7397230;19;20422;-43
2022/04/19 05:02:35;;;;;;;20.20;11.33;;;;;;;3.75;100.00;100734.66;7385656;19;20423;-44
2022/04/19 05:05:05;;;;;;;24.77;10.83;;;;;;;3.81;100.00;100722.31;7394653;19;20392;-44
2022/04/19 05:07:38;;;;;;;20.00;11.70;;;;;;;3.86;100.00;100717.50;7387298;19;20439;-43
2022/04/19 05:10:09;;;;;;;23.47;12.00;;;;;;;3.87;100.00;100715.06;7393044;19;20412;-44
2022/04/19 05:12:42;;;;;;;27.37;12.60;;;;;;;3.90;100.00;100709.28;7389854;19;20419;-44
2022/04/19 05:15:12;;;;;;;23.20;11.17;;;;;;;3.96;100.00;100702.06;7394324;19;20394;-45
2022/04/19 05:17:41;;;;;;;24.40;12.97;;;;;;;3.97;100.00;100700.38;7386354;19;20782;-45
2022/04/19 05:20:11;;;;;;;27.50;13.33;;;;;;;4.00;100.00;100691.25;7392103;19;20424;-46
2022/04/19 05:22:40;;;;;;;25.03;13.33;;;;;;;4.04;100.00;100685.56;7387246;19;20411;-43
2022/04/19 05:25:10;;;;;;;25.70;13.43;;;;;;;4.17;100.00;100674.50;7392893;19;20402;-43
2022/04/19 05:27:42;;;;;;;21.20;13.00;;;;;;;4.26;100.00;100670.78;7386573;19;20419;-44
2022/04/19 05:30:12;;;;;;;23.93;13.40;;;;;;;4.33;100.00;100660.19;7392694;19;20437;-44
2022/04/19 05:32:42;;;;;;;24.50;12.53;;;;;;;4.38;100.00;100665.59;7385753;19;20411;-44
2022/04/19 05:35:11;;;;;;;21.00;12.33;;;;;;;4.43;100.00;100662.56;7393386;19;20396;-46
2022/04/19 05:37:41;;;;;;;22.30;13.07;;;;;;;4.44;100.00;100658.31;7356785;19;20407;-47
2022/04/19 05:40:14;;;;;;;21.03;12.10;;;;;;;4.57;100.00;100649.81;7391395;19;20438;-43
2022/04/19 05:42:46;;;;;;;23.77;12.47;;;;;;;4.63;100.00;100644.19;7387096;19;20770;-47
2022/04/19 05:45:15;;;;;;;20.57;10.27;;;;;;;5.37;100.00;100638.56;7392715;19;20388;-43
2022/04/19 05:47:45;;;;;;;29.73;16.30;;;;;;;6.04;100.00;100639.94;7392056;19;20415;-44
2022/04/19 05:50:15;;;;;;;34.50;18.43;;;;;;;6.23;100.00;100676.88;7391535;19;20416;-45
2022/04/19 05:52:45;;;;;;;122.07;58.40;;;;;;;6.28;100.00;100705.34;7392717;19;20423;-43
2022/04/19 05:55:14;;;;;;;22.23;12.97;;;;;;;6.50;100.00;100758.72;7392657;19;20384;-45
2022/04/19 05:57:47;;;;;;;59.53;31.57;;;;;;;6.53;100.00;100796.47;7390110;19;20429;-47
2022/04/19 06:00:17;;;;;;;27.20;15.97;;;;;;;6.32;100.00;100848.25;7391476;19;20409;-46
2022/04/19 06:05:29;;;;;;;15.80;9.07;;;;;;;5.88;100.00;100903.56;7386125;19;20386;-46
2022/04/19 06:07:59;;;;;;;22.63;11.80;;;;;;;5.92;100.00;100913.22;7392058;19;20393;-43
2022/04/19 06:10:28;;;;;;;22.67;12.67;;;;;;;5.92;100.00;100937.19;7382821;19;20425;-44
2022/04/19 06:13:01;;;;;;;22.03;13.33;;;;;;;6.11;100.00;100957.97;7394924;19;20745;-47
2022/04/19 06:15:31;;;;;;;20.63;12.63;;;;;;;6.09;100.00;100968.13;7387461;19;20373;-43
2022/04/19 06:18:01;;;;;;;28.57;12.60;;;;;;;6.21;100.00;100971.47;7389908;19;20389;-46
2022/04/19 06:20:31;;;;;;;20.73;12.13;;;;;;;6.19;100.00;100987.53;7383522;19;20419;-44
2022/04/19 06:23:00;;;;;;;17.30;10.63;;;;;;;6.17;100.00;100991.66;7392226;19;20387;-47
2022/04/19 06:25:30;;;;;;;14.80;9.40;;;;;;;6.04;100.00;101003.69;7385866;19;20744;-44
2022/04/19 06:28:02;;;;;;;20.40;9.10;;;;;;;6.05;100.00;100992.66;7390694;19;20674;-48
2022/04/19 06:30:32;;;;;;;23.80;12.50;;;;;;;6.32;100.00;101002.00;7383167;19;20436;-44
2022/04/19 06:33:01;;;;;;;14.50;8.80;;;;;;;6.18;100.00;101006.25;7391483;19;20376;-43
2022/04/19 06:35:31;;;;;;;20.63;9.60;;;;;;;6.19;100.00;101005.47;7387283;19;20912;-46
2022/04/19 06:38:00;;;;;;;12.07;7.70;;;;;;;6.47;100.00;101009.78;7388559;19;20380;-44
2022/04/19 06:40:30;;;;;;;12.97;8.13;;;;;;;6.32;100.00;101023.38;7384741;19;20437;-45
2022/04/19 06:43:02;;;;;;;10.83;6.67;;;;;;;6.29;100.00;101024.88;7391493;19;20391;-45
2022/04/19 06:45:32;;;;;;;12.90;7.30;;;;;;;6.28;100.00;101035.91;7384127;19;20383;-45
2022/04/19 06:48:02;;;;;;;11.57;7.00;;;;;;;6.28;100.00;101039.38;7390658;19;20391;-44
2022/04/19 06:50:32;;;;;;;13.90;7.23;;;;;;;6.37;100.00;101043.31;7383662;19;20489;-45
2022/04/19 06:53:01;;;;;;;12.13;7.00;;;;;;;6.46;100.00;101049.88;7390832;19;20772;-44
2022/04/19 06:55:31;;;;;;;11.53;7.40;;;;;;;6.48;100.00;101056.00;7387829;19;20406;-47
2022/04/19 06:58:03;;;;;;;10.47;6.07;;;;;;;6.53;100.00;101071.69;7395656;19;20397;-46
2022/04/19 07:00:33;;;;;;;9.97;6.20;;;;;;;6.56;100.00;101082.13;7384044;19;20426;-43
2022/04/19 07:03:02;;;;;;;12.00;6.33;;;;;;;6.64;100.00;101084.28;7399584;19;20410;-49
2022/04/19 07:05:32;;;;;;;10.50;5.77;;;;;;;6.66;100.00;101093.84;7391407;19;20413;-45
2022/04/19 07:08:03;;;;;;;12.80;5.60;;;;;;;6.81;100.00;101105.88;7398927;19;20392;-45
2022/04/19 07:10:33;;;;;;;9.87;5.10;;;;;;;6.77;100.00;101130.41;7388022;19;20414;-44
2022/04/19 07:13:06;;;;;;;12.00;7.07;;;;;;;6.89;100.00;101138.88;7401186;19;20999;-47
2022/04/19 07:15:36;;;;;;;11.43;6.03;;;;;;;7.00;100.00;101146.38;7391190;19;20386;-45
2022/04/19 07:18:06;;;;;;;12.17;6.47;;;;;;;7.07;100.00;101148.53;7395394;19;20395;-49
2022/04/19 07:28:47;;;;;;;8.30;5.57;;;;;;;7.51;100.00;101167.47;7394426;19;20415;-46
2022/04/19 07:31:16;;;;;;;11.10;5.73;;;;;;;7.62;100.00;101174.94;7386609;19;20418;-44
2022/04/19 07:33:46;;;;;;;11.00;5.30;;;;;;;7.83;100.00;101175.34;7396794;19;20388;-45
2022/04/19 07:36:16;;;;;;;10.23;5.77;;;;;;;7.85;100.00;101186.59;7389287;19;20423;-43
2022/04/19 07:38:46;;;;;;;10.83;5.83;;;;;;;7.67;100.00;101189.84;7398526;19;20419;-44
2022/04/19 07:41:17;;;;;;;9.90;5.67;;;;;;;7.69;100.00;101180.53;7390372;19;20882;-46
2022/04/19 07:43:50;;;;;;;11.10;5.67;;;;;;;7.88;100.00;101183.31;7397035;19;20387;-46
2022/04/19 07:46:20;;;;;;;7.40;4.70;;;;;;;7.92;100.00;101186.16;7389138;19;20419;-44
2022/04/19 07:48:51;;;;;;;8.80;4.20;;;;;;;8.03;100.00;101199.66;7394989;19;20423;-44
2022/04/19 07:51:21;;;;;;;8.77;5.03;;;;;;;8.22;100.00;101206.75;7391201;19;20443;-47
2022/04/19 07:53:51;;;;;;;7.20;4.50;;;;;;;8.28;100.00;101198.53;7395730;19;20394;-44
2022/04/19 07:56:20;;;;;;;9.33;5.20;;;;;;;8.31;100.00;101198.69;7386257;19;20410;-44
2022/04/19 07:58:53;;;;;;;10.27;5.60;;;;;;;8.46;100.00;101206.41;7393063;19;20423;-43
2022/04/19 08:01:23;;;;;;;19.23;8.00;;;;;;;8.64;100.00;101198.00;7383299;19;20415;-43
2022/04/19 08:03:53;;;;;;;10.53;5.90;;;;;;;8.64;100.00;101205.72;7395769;19;20407;-45
2022/04/19 08:06:23;;;;;;;9.70;5.57;;;;;;;8.70;100.00;101206.06;7385016;19;20399;-44
2022/04/19 08:08:52;;;;;;;9.80;6.47;;;;;;;8.83;100.00;101201.63;7394433;19;20411;-47
2022/04/19 08:11:21;;;;;;;6.90;4.60;;;;;;;8.97;100.00;101190.38;7386139;19;20457;-43
2022/04/19 08:13:54;;;;;;;8.03;4.93;;;;;;;9.13;100.00;101201.53;7395969;19;20384;-44
2022/04/19 08:16:23;;;;;;;19.73;8.83;;;;;;;9.29;100.00;101208.41;7388479;19;20773;-43
2022/04/19 08:18:53;;;;;;;8.50;4.53;;;;;;;9.40;100.00;101206.41;7396958;19;20444;-45
2022/04/19 08:21:22;;;;;;;8.73;4.47;;;;;;;9.52;100.00;101211.31;7388566;19;20417;-46
2022/04/19 08:23:52;;;;;;;28.40;11.47;;;;;;;9.61;100.00;101211.81;7393595;19;20410;-46
2022/04/19 08:26:21;;;;;;;8.33;4.90;;;;;;;9.75;100.00;101214.25;7386222;19;20419;-43
2022/04/19 08:28:54;;;;;;;7.33;4.20;;;;;;;9.85;100.00;101225.09;7393927;19;20428;-44
2022/04/19 08:31:23;;;;;;;6.77;3.33;;;;;;;9.88;100.00;101226.09;7386327;19;20419;-44
2022/04/19 08:33:53;;;;;;;7.47;4.23;;;;;;;10.05;100.00;101221.81;7395183;19;20407;-47
2022/04/19 08:36:23;;;;;;;9.53;4.90;;;;;;;10.18;100.00;101223.28;7386013;19;20945;-45
2022/04/19 08:38:52;;;;;;;9.07;4.90;;;;;;;10.22;100.00;101230.38;7393818;19;20429;-46
2022/04/19 08:41:23;;;;;;;7.70;3.97;;;;;;;10.29;100.00;101231.59;7386405;19;20938;-45
2022/04/19 08:43:55;;;;;;;11.13;4.10;;;;;;;10.30;100.00;101226.50;7394024;19;20387;-44
2022/04/19 08:46:25;;;;;;;8.80;4.23;;;;;;;10.24;100.00;101226.19;7380277;19;20421;-44
2022/04/19 08:48:56;;;;;;;9.60;4.80;;;;;;;10.44;100.00;101228.91;7393461;19;20412;-45
2022/04/19 08:51:27;;;;;;;7.93;4.70;;;;;;;10.64;100.00;101227.31;7383631;19;20407;-45
2022/04/19 08:59:35;;;;;;;8.07;4.70;;;;;;;10.81;100.00;101230.72;7390715;19;20601;-47
2022/04/19 09:02:07;;;;;;;7.50;4.37;;;;;;;10.84;100.00;101235.16;7389975;19;20987;-43
2022/04/19 09:04:38;;;;;;;10.10;4.30;;;;;;;10.94;100.00;101229.63;7393636;19;20822;-45
2022/04/19 09:07:08;;;;;;;11.30;4.43;;;;;;;11.11;100.00;101240.75;7385996;19;21012;-44
2022/04/19 09:09:38;;;;;;;11.37;6.60;;;;;;;11.32;100.00;101230.53;7389454;19;20416;-47
2022/04/19 09:12:10;;;;;;;9.80;4.83;;;;;;;11.36;100.00;101231.56;7384183;19;20436;-44
2022/04/19 09:14:58;;;;;;;9.80;4.57;;;;;;;11.47;100.00;101235.53;7392219;19;20402;-44
2022/04/19 09:17:35;;;;;;;11.67;6.07;;;;;;;11.57;100.00;101229.09;7383894;19;21240;-45
2022/04/19 09:20:11;;;;;;;10.33;5.37;;;;;;;11.65;100.00;101234.59;7388255;19;20436;-44
2022/04/19 09:22:42;;;;;;;11.53;5.43;;;;;;;11.60;100.00;101230.91;7386910;19;20487;-45
2022/04/19 09:25:20;;;;;;;12.60;5.30;;;;;;;11.65;100.00;101244.03;7391500;19;20383;-46
2022/04/19 09:27:50;;;;;;;17.53;5.97;;;;;;;11.77;100.00;101233.34;7390173;19;20416;-46
2022/04/19 09:30:27;;;;;;;9.53;5.40;;;;;;;11.79;100.00;101244.66;7381539;19;20421;-48
2022/04/19 09:33:10;;;;;;;12.40;5.33;;;;;;;11.85;100.00;101248.41;7390411;19;21209;-44
2022/04/19 09:35:43;;;;;;;11.70;5.50;;;;;;;12.00;100.00;101262.84;7381448;19;20405;-45
2022/04/19 09:38:17;;;;;;;12.07;6.00;;;;;;;12.18;100.00;101261.88;7391524;19;20407;-45
2022/04/19 09:40:47;;;;;;;9.77;4.30;;;;;;;12.23;100.00;101266.47;7387530;19;20417;-50
2022/04/19 09:43:37;;;;;;;13.13;4.70;;;;;;;12.35;100.00;101263.50;7391863;19;20383;-45
2022/04/19 09:46:10;;;;;;;10.47;5.53;;;;;;;12.31;99.62;101263.31;7364695;19;20420;-48
2022/04/19 09:48:41;;;;;;;10.00;5.07;;;;;;;12.33;100.00;101272.00;7390812;19;20422;-46
2022/04/19 09:51:12;;;;;;;10.10;4.20;;;;;;;12.44;100.00;101260.41;7380872;19;20422;-47
2022/04/19 09:53:43;;;;;;;11.90;4.50;;;;;;;12.69;100.00;101266.63;7391134;19;20712;-46
2022/04/19 09:56:14;;;;;;;10.90;4.97;;;;;;;12.73;100.00;101272.81;7382873;19;20407;-44
2022/04/19 09:59:05;;;;;;;10.87;5.10;;;;;;;12.69;100.00;101259.75;7389276;19;20427;-45
2022/04/19 10:09:53;;;;;;;11.60;5.20;;;;;;;12.90;94.71;101261.44;7385865;19;20408;-46
2022/04/19 10:12:26;;;;;;;8.87;4.30;;;;;;;12.93;93.96;101263.28;7384956;19;20493;-45
2022/04/19 10:14:55;;;;;;;17.13;5.47;;;;;;;13.02;92.91;101271.38;7392327;19;20399;-44
2022/04/19 10:17:28;;;;;;;11.73;4.60;;;;;;;12.86;87.88;101258.66;7384975;19;20827;-43
2022/04/19 10:20:00;;;;;;;9.87;4.50;;;;;;;12.86;88.10;101267.31;7390396;19;20424;-46
2022/04/19 10:22:29;;;;;;;8.53;4.63;;;;;;;12.92;87.66;101262.38;7383799;19;20431;-45
2022/04/19 10:25:02;;;;;;;10.30;4.57;;;;;;;13.11;86.81;101260.50;7394598;19;20408;-48
2022/04/19 10:27:34;;;;;;;9.57;4.30;;;;;;;13.21;85.79;101266.94;7386101;19;20419;-45
2022/04/19 10:30:04;;;;;;;8.03;3.77;;;;;;;12.94;82.71;101262.44;7392612;19;20428;-45
2022/04/19 10:32:37;;;;;;;8.63;4.00;;;;;;;12.89;83.16;101274.31;7393429;19;20827;-44
2022/04/19 10:35:09;;;;;;;14.20;6.03;;;;;;;13.17;84.43;101272.84;7399892;19;20391;-46
2022/04/19 10:37:38;;;;;;;11.80;4.43;;;;;;;13.28;85.19;101275.84;7390656;19;20449;-51
2022/04/19 10:40:12;;;;;;;6.73;3.27;;;;;;;13.21;84.57;101267.84;7396930;19;20446;-51
2022/04/19 10:42:43;;;;;;;11.87;4.63;;;;;;;13.28;84.65;101263.75;7389623;19;20775;-51
2022/04/19 10:45:25;;;;;;;13.90;4.90;;;;;;;13.32;84.36;101265.66;7399266;19;20383;-46
2022/04/19 10:48:08;;;;;;;8.57;4.30;;;;;;;13.53;85.74;101269.03;7396760;19;20416;-47
2022/04/19 10:50:39;;;;;;;7.93;2.90;;;;;;;13.76;85.84;101256.94;7390657;19;20432;-44
2022/04/19 10:53:10;;;;;;;9.37;3.60;;;;;;;13.52;85.86;101267.28;7398953;19;20474;-46
2022/04/19 10:55:41;;;;;;;8.67;4.30;;;;;;;13.21;88.17;101275.59;7391880;19;20417;-46
2022/04/19 10:58:13;;;;;;;11.87;4.00;;;;;;;13.33;89.04;101267.41;7398145;19;20809;-46
2022/04/19 11:00:51;;;;;;;9.80;3.60;;;;;;;13.15;89.78;101265.00;7390679;19;20407;-46
2022/04/19 11:03:56;;;;;;;6.57;3.03;;;;;;;13.33;91.69;101272.59;7399019;19;20413;-48
2022/04/19 11:06:33;;;;;;;8.40;3.80;;;;;;;13.35;90.65;101260.56;7392260;19;20409;-45
2022/04/19 11:09:19;;;;;;;6.63;3.00;;;;;;;13.77;91.91;101258.69;7396506;19;20418;-45
2022/04/19 11:11:51;;;;;;;7.60;2.47;;;;;;;13.93;89.59;101259.25;7394164;19;20454;-47
2022/04/19 11:14:40;;;;;;;7.83;2.40;;;;;;;13.49;88.37;101257.69;7398112;19;20399;-46
2022/04/19 11:17:29;;;;;;;5.20;2.30;;;;;;;13.52;89.45;101265.56;7388530;19;20447;-44
2022/04/19 11:20:10;;;;;;;4.70;2.10;;;;;;;13.62;88.98;101259.91;7398576;19;20451;-49
2022/04/19 11:22:48;;;;;;;5.87;2.10;;;;;;;13.77;89.62;101263.88;7368556;19;20470;-45
2022/04/19 11:25:19;;;;;;;6.60;2.50;;;;;;;13.77;89.13;101259.59;7396701;19;20395;-52
2022/04/19 11:28:16;;;;;;;6.17;2.73;;;;;;;13.67;88.90;101257.47;7398689;19;20771;-45
2022/04/19 11:30:46;;;;;;;5.67;2.33;;;;;;;13.81;89.00;101250.22;7363115;19;20479;-45
2022/04/19 11:33:26;;;;;;;18.03;6.90;;;;;;;13.74;90.31;101253.41;7395486;19;20391;-49
2022/04/19 11:36:03;;;;;;;11.70;4.63;;;;;;;13.84;90.66;101246.84;7388355;19;20418;-46
2022/04/19 11:38:35;;;;;;;20.40;7.60;;;;;;;14.05;89.95;101249.28;7392920;19;20390;-46
2022/04/19 11:49:12;;;;;;;5.87;2.47;;;;;;;13.98;88.27;101236.94;7394970;19;20423;-44
2022/04/19 11:51:47;;;;;;;5.63;2.17;;;;;;;13.88;87.95;101243.50;7387758;19;20422;-46
2022/04/19 11:54:21;;;;;;;14.93;2.83;;;;;;;14.04;88.00;101243.25;7397117;19;20383;-46
2022/04/19 11:56:52;;;;;;;5.57;2.47;;;;;;;13.95;88.25;101249.81;7383159;19;20419;-46
2022/04/19 11:59:30;;;;;;;5.00;2.00;;;;;;;13.87;84.92;101239.16;7394217;19;20506;-45
2022/04/19 12:02:03;;;;;;;4.70;2.47;;;;;;;13.84;86.16;101239.94;7385713;19;20430;-47
2022/04/19 12:04:33;;;;;;;2.80;1.20;;;;;;;13.56;83.43;101235.44;7396669;19;20398;-45
2022/04/19 12:07:05;;;;;;;4.47;1.60;;;;;;;13.71;83.41;101232.53;7388635;19;20421;-45
2022/04/19 12:09:35;;;;;;;2.70;1.20;;;;;;;13.70;81.10;101244.59;7394567;19;20428;-46
2022/04/19 12:12:08;;;;;;;6.70;2.27;;;;;;;13.73;79.85;101241.25;7384503;19;20445;-48
2022/04/19 12:14:37;;;;;;;4.80;2.07;;;;;;;13.90;77.32;101234.97;7395512;19;20383;-50
2022/04/19 12:17:08;;;;;;;7.20;2.20;;;;;;;13.91;76.03;101234.13;7386514;19;20423;-49
2022/04/19 12:19:40;;;;;;;4.70;1.80;;;;;;;14.02;73.52;101241.41;7393204;19;20424;-44
2022/04/19 12:22:23;;;;;;;4.47;2.00;;;;;;;14.34;74.45;101231.25;7391731;19;20460;-50